Time;durP1;ratioP1;P1;durP2;ratioP2;P2;SDS_P1;SDS_P2;PMS_P1;PMS_P2;Temp;Humidity;BMP_temperature;BMP_pressure;BME280_temperature;BME280_humidity;BME280_pressure;Samples;Min_cycle;Max_cycle;Signal;HPM_P1;HPM_P2
2022/10/04 00:01:10;;;;;;;66.55;29.80;;;8.00;99.90;;;;;;5074126;28;20386;-54
2022/10/04 00:03:50;;;;;;;84.25;35.85;;;8.10;99.90;;;;;;5074364;28;20187;-55
2022/10/04 00:06:22;;;;;;;69.72;29.98;;;8.20;99.90;;;;;;5074400;28;20029;-54
2022/10/04 00:08:48;;;;;;;60.20;27.65;;;8.30;99.90;;;;;;5074371;28;20063;-54
2022/10/04 00:11:13;;;;;;;53.60;25.55;;;8.40;99.90;;;;;;5074502;28;20064;-54
2022/10/04 00:13:45;;;;;;;66.75;25.73;;;8.60;99.90;;;;;;5072650;28;20167;-54
2022/10/04 00:16:27;;;;;;;59.55;25.27;;;8.60;99.90;;;;;;5074495;28;20078;-55
2022/10/04 00:19:03;;;;;;;107.15;29.42;;;8.50;99.90;;;;;;5073553;28;20067;-55
2022/10/04 00:21:55;;;;;;;67.97;28.00;;;8.40;99.90;;;;;;5074404;28;20025;-55
2022/10/04 00:24:35;;;;;;;72.55;25.13;;;8.20;99.90;;;;;;5047601;28;20130;-55
2022/10/04 00:27:21;;;;;;;66.72;25.08;;;8.10;99.90;;;;;;5094470;28;20028;-54
2022/10/04 00:30:36;;;;;;;87.13;27.33;;;8.10;99.90;;;;;;5094316;28;20032;-55
2022/10/04 00:33:03;;;;;;;67.25;28.70;;;7.90;99.90;;;;;;5091381;28;20236;-55
2022/10/04 00:35:29;;;;;;;71.72;27.92;;;7.70;99.90;;;;;;5094413;28;20028;-55
2022/10/04 00:38:05;;;;;;;70.57;28.45;;;7.80;99.90;;;;;;5094643;28;20078;-55
2022/10/04 00:40:41;;;;;;;71.80;28.73;;;7.80;99.90;;;;;;5094428;28;20051;-55
2022/10/04 00:43:19;;;;;;;65.53;28.67;;;7.90;99.90;;;;;;5094098;28;20406;-55
2022/10/04 00:45:51;;;;;;;57.65;25.73;;;7.90;99.90;;;;;;5085709;28;20051;-55
2022/10/04 00:48:27;;;;;;;65.05;26.38;;;7.80;99.90;;;;;;5074071;28;20078;-54
2022/10/04 00:51:24;;;;;;;83.13;27.38;;;7.70;99.90;;;;;;5073974;28;20048;-54
2022/10/04 00:54:06;;;;;;;72.28;30.38;;;7.70;99.90;;;;;;5039343;28;20044;-55
2022/10/04 00:56:47;;;;;;;71.80;29.45;;;7.70;99.90;;;;;;5073920;28;20547;-54
2022/10/04 00:59:17;;;;;;;66.35;27.30;;;7.70;99.90;;;;;;5074049;28;20028;-54
2022/10/04 01:01:46;;;;;;;79.60;29.35;;;7.70;99.90;;;;;;5074151;28;20036;-54
2022/10/04 01:04:29;;;;;;;72.72;31.70;;;7.70;99.90;;;;;;5073885;28;20039;-54
2022/10/04 01:06:59;;;;;;;88.35;36.40;;;7.60;99.90;;;;;;5073544;28;20029;-54
2022/10/04 01:09:26;;;;;;;99.93;40.93;;;7.80;99.90;;;;;;5073998;28;20028;-54
2022/10/04 01:12:01;;;;;;;105.97;45.92;;;7.80;99.90;;;;;;5073628;28;20249;-54
2022/10/04 01:14:53;;;;;;;95.10;40.13;;;7.90;99.90;;;;;;5073937;28;20519;-54
2022/10/04 01:17:19;;;;;;;85.57;37.53;;;7.80;99.90;;;;;;5042671;28;20036;-54
2022/10/04 01:19:53;;;;;;;76.82;36.83;;;7.90;99.90;;;;;;5073740;28;20069;-54
2022/10/04 01:22:34;;;;;;;67.63;32.80;;;7.90;99.90;;;;;;5073889;28;20036;-55
2022/10/04 01:25:00;;;;;;;71.15;35.42;;;7.90;99.90;;;;;;5083438;28;20032;-54
2022/10/04 01:27:34;;;;;;;67.53;31.88;;;8.00;99.90;;;;;;5093933;28;20515;-54
2022/10/04 01:30:01;;;;;;;71.22;30.13;;;7.80;99.90;;;;;;5096420;28;20059;-54
2022/10/04 01:32:29;;;;;;;66.22;32.42;;;8.00;99.90;;;;;;5097471;28;20031;-54
2022/10/04 01:34:56;;;;;;;71.13;33.80;;;8.00;99.90;;;;;;5097534;28;20028;-54
2022/10/04 01:37:22;;;;;;;61.90;31.65;;;7.80;99.90;;;;;;5097612;28;20110;-54
2022/10/04 01:39:48;;;;;;;59.67;28.42;;;7.70;99.90;;;;;;5097492;28;20056;-54
2022/10/04 01:42:31;;;;;;;63.20;30.00;;;7.70;99.90;;;;;;5097491;28;20038;-55
2022/10/04 01:45:07;;;;;;;54.90;23.70;;;7.80;99.90;;;;;;5095377;28;20084;-55
2022/10/04 01:47:57;;;;;;;57.97;27.80;;;7.70;99.90;;;;;;5077184;28;20111;-54
2022/10/04 01:50:37;;;;;;;66.90;31.83;;;7.60;99.90;;;;;;5076926;28;20355;-54
2022/10/04 01:53:22;;;;;;;87.78;39.15;;;7.50;99.90;;;;;;5076885;28;20036;-54
2022/10/04 01:55:54;;;;;;;74.88;36.78;;;7.40;99.90;;;;;;5076925;28;20029;-54
2022/10/04 01:58:29;;;;;;;75.13;38.10;;;7.40;99.90;;;;;;5076879;28;20077;-54
2022/10/04 02:01:06;;;;;;;75.05;35.85;;;7.50;99.90;;;;;;5076729;28;20051;-55
2022/10/04 02:03:36;;;;;;;77.00;35.65;;;7.40;99.90;;;;;;5076767;28;20063;-54
2022/10/04 02:06:06;;;;;;;71.50;35.30;;;7.40;99.90;;;;;;5076396;28;20082;-54
2022/10/04 02:08:43;;;;;;;79.80;35.22;;;7.40;99.90;;;;;;5076433;28;20481;-54
2022/10/04 02:11:15;;;;;;;68.85;34.22;;;7.40;99.90;;;;;;5076469;28;20035;-54
2022/10/04 02:13:42;;;;;;;69.03;35.13;;;7.40;99.90;;;;;;5076480;28;20521;-54
2022/10/04 02:16:10;;;;;;;73.35;36.20;;;7.40;99.90;;;;;;5076489;28;20032;-54
2022/10/04 02:18:38;;;;;;;69.15;36.53;;;7.30;99.90;;;;;;5076083;28;20465;-54
2022/10/04 02:21:06;;;;;;;76.22;38.80;;;7.30;99.90;;;;;;5076402;28;20482;-55
2022/10/04 02:23:34;;;;;;;67.05;35.53;;;7.20;99.90;;;;;;5076316;28;20045;-54
2022/10/04 02:26:05;;;;;;;74.63;35.00;;;7.10;99.90;;;;;;5094538;28;20089;-54
2022/10/04 02:28:32;;;;;;;70.50;35.83;;;7.20;99.90;;;;;;5096453;28;20058;-54
2022/10/04 02:33:48;;;;;;;68.15;34.05;;;7.20;99.90;;;;;;5096505;28;20020;-54
2022/10/04 02:36:15;;;;;;;75.90;36.50;;;7.30;99.90;;;;;;5096391;28;20031;-55
2022/10/04 02:38:47;;;;;;;75.80;37.45;;;7.40;99.90;;;;;;5096391;28;20465;-54
2022/10/04 02:41:26;;;;;;;84.68;39.75;;;7.40;99.90;;;;;;5095833;28;20470;-55
2022/10/04 02:43:58;;;;;;;74.88;38.78;;;7.40;99.90;;;;;;5096234;28;20031;-55
2022/10/04 02:46:32;;;;;;;67.85;35.20;;;7.60;99.90;;;;;;5082000;28;20024;-55
2022/10/04 02:49:05;;;;;;;63.08;29.08;;;7.60;99.90;;;;;;5076183;28;20055;-54
2022/10/04 02:51:41;;;;;;;68.88;35.85;;;7.70;99.90;;;;;;5076044;28;20035;-54
2022/10/04 02:54:32;;;;;;;69.65;36.15;;;7.80;99.90;;;;;;5075701;28;20056;-54
2022/10/04 02:57:00;;;;;;;80.45;39.70;;;7.70;99.90;;;;;;5075771;28;20056;-54
2022/10/04 02:59:27;;;;;;;75.32;39.25;;;7.60;99.90;;;;;;5075817;28;20123;-55
2022/10/04 03:01:59;;;;;;;78.97;41.28;;;7.70;99.90;;;;;;5075624;28;20078;-55
2022/10/04 03:04:33;;;;;;;87.32;43.20;;;7.70;99.90;;;;;;5075754;28;20112;-55
2022/10/04 03:07:03;;;;;;;86.03;43.20;;;7.60;99.90;;;;;;5075233;28;20059;-55
2022/10/04 03:09:30;;;;;;;87.35;42.30;;;7.60;99.90;;;;;;5075409;28;20037;-55
2022/10/04 03:11:56;;;;;;;77.85;40.42;;;7.60;99.90;;;;;;5075158;28;20080;-55
2022/10/04 03:14:27;;;;;;;62.95;35.20;;;7.60;99.90;;;;;;5075971;28;20028;-55
2022/10/04 03:16:56;;;;;;;64.88;35.60;;;7.60;99.90;;;;;;5075175;28;20033;-55
2022/10/04 03:19:25;;;;;;;64.65;33.42;;;7.70;99.90;;;;;;5075109;28;20031;-55
2022/10/04 03:21:56;;;;;;;65.53;33.33;;;7.60;99.90;;;;;;5075072;28;20113;-55
2022/10/04 03:24:24;;;;;;;;;;;7.70;99.90;;;;;;5079919;28;20478;-55
2022/10/04 03:26:59;;;;;;;55.70;27.80;;;7.60;99.90;;;;;;5095482;28;20273;-55
2022/10/04 03:29:29;;;;;;;58.65;29.35;;;7.50;99.90;;;;;;5095081;28;20114;-55
2022/10/04 03:31:57;;;;;;;55.53;27.70;;;7.50;99.90;;;;;;5095203;28;20086;-55
2022/10/04 03:34:33;;;;;;;50.13;26.70;;;7.60;99.90;;;;;;5095157;28;20385;-55
2022/10/04 03:37:01;;;;;;;53.42;26.65;;;7.70;99.90;;;;;;5095374;28;20021;-55
2022/10/04 03:39:42;;;;;;;55.60;27.48;;;7.60;99.90;;;;;;5095173;28;20077;-54
2022/10/04 03:42:16;;;;;;;56.65;28.08;;;7.60;99.90;;;;;;5094918;28;20028;-55
2022/10/04 03:44:45;;;;;;;51.40;26.60;;;7.60;99.90;;;;;;5094866;28;20032;-55
2022/10/04 03:47:19;;;;;;;50.53;26.08;;;7.50;99.90;;;;;;5054702;28;20068;-54
2022/10/04 03:49:46;;;;;;;51.30;26.42;;;7.40;99.90;;;;;;5054808;28;20498;-55
2022/10/04 03:52:28;;;;;;;48.90;25.38;;;7.40;99.90;;;;;;5054070;28;20033;-55
2022/10/04 03:54:59;;;;;;;49.25;25.52;;;7.40;99.90;;;;;;5054418;28;20052;-55
2022/10/04 03:57:25;;;;;;;47.90;24.88;;;7.40;99.90;;;;;;5054880;28;20033;-54
2022/10/04 03:59:51;;;;;;;52.33;26.33;;;7.40;99.90;;;;;;5054655;28;20032;-55
2022/10/04 04:02:41;;;;;;;50.55;25.65;;;7.40;99.90;;;;;;5054547;28;20063;-55
2022/10/04 04:05:15;;;;;;;48.85;25.25;;;7.30;99.90;;;;;;5054451;28;20036;-54
2022/10/04 04:08:00;;;;;;;46.08;23.98;;;7.30;99.90;;;;;;5054220;28;20029;-55
2022/10/04 04:10:29;;;;;;;49.75;24.90;;;7.40;99.90;;;;;;5054329;28;20047;-54
2022/10/04 04:13:10;;;;;;;44.53;22.92;;;7.30;99.90;;;;;;5054071;28;20129;-55
2022/10/04 04:15:42;;;;;;;49.10;24.45;;;7.20;99.90;;;;;;5054287;28;20025;-55
2022/10/04 04:18:30;;;;;;;46.80;24.33;;;7.10;99.90;;;;;;5054173;28;20474;-54
2022/10/04 04:20:59;;;;;;;45.20;23.85;;;7.10;99.90;;;;;;5054399;28;20104;-54
2022/10/04 04:23:34;;;;;;;53.72;24.65;;;7.10;99.90;;;;;;5054180;28;20025;-55
2022/10/04 04:26:11;;;;;;;41.15;22.13;;;7.10;99.90;;;;;;5089929;28;20029;-55
2022/10/04 04:28:44;;;;;;;44.80;23.30;;;7.10;99.90;;;;;;5094217;28;20032;-54
2022/10/04 04:31:18;;;;;;;45.55;22.40;;;7.10;99.90;;;;;;5094482;28;20028;-55
2022/10/04 04:34:12;;;;;;;43.47;23.00;;;7.00;99.90;;;;;;5094562;28;20032;-54
2022/10/04 04:36:40;;;;;;;47.20;22.40;;;7.00;99.90;;;;;;5094199;28;20538;-55
2022/10/04 04:42:01;;;;;;;37.80;21.17;;;7.00;99.90;;;;;;5094169;28;20039;-54
2022/10/04 04:44:28;;;;;;;41.65;21.77;;;7.10;99.90;;;;;;5094141;28;20044;-54
2022/10/04 04:46:55;;;;;;;41.80;23.73;;;7.10;99.90;;;;;;5076126;28;20036;-55
2022/10/04 04:49:22;;;;;;;41.10;22.23;;;7.10;99.90;;;;;;5073973;28;20064;-55
2022/10/04 04:51:51;;;;;;;41.03;20.98;;;7.10;99.90;;;;;;5073985;28;20024;-54
2022/10/04 04:54:20;;;;;;;35.40;18.55;;;7.00;99.90;;;;;;5074098;28;20024;-55
2022/10/04 04:56:50;;;;;;;42.50;20.02;;;7.00;99.90;;;;;;5073922;28;20485;-55
2022/10/04 04:59:17;;;;;;;33.92;17.85;;;7.00;99.90;;;;;;5074047;28;20040;-54
2022/10/04 05:01:47;;;;;;;48.20;19.90;;;7.10;99.90;;;;;;5073654;28;20032;-54
2022/10/04 05:04:18;;;;;;;38.78;18.77;;;7.10;99.90;;;;;;5075190;28;20029;-54
2022/10/04 05:07:05;;;;;;;41.83;21.35;;;7.20;99.90;;;;;;5077499;28;20024;-54
2022/10/04 05:09:37;;;;;;;125.72;60.45;;;7.10;99.90;;;;;;5076342;28;21148;-55
2022/10/04 05:12:15;;;;;;;70.88;36.60;;;7.20;99.90;;;;;;5069543;28;20040;-55
2022/10/04 05:14:47;;;;;;;46.45;20.00;;;7.70;99.90;;;;;;5075159;28;20028;-55
2022/10/04 05:17:30;;;;;;;48.75;18.38;;;8.10;99.90;;;;;;5058002;28;20045;-55
2022/10/04 05:19:59;;;;;;;41.97;18.77;;;8.50;99.90;;;;;;5076514;28;20036;-55
2022/10/04 05:22:27;;;;;;;40.10;18.73;;;9.00;99.90;;;;;;5077861;28;20169;-55
2022/10/04 05:25:09;;;;;;;34.35;18.02;;;9.40;99.90;;;;;;5079254;28;20059;-55
2022/10/04 05:27:41;;;;;;;40.47;19.10;;;9.70;99.90;;;;;;5067830;28;20378;-55
2022/10/04 05:30:30;;;;;;;37.72;19.58;;;10.00;99.90;;;;;;5072980;28;20067;-55
2022/10/04 05:33:13;;;;;;;41.85;19.63;;;10.60;99.90;;;;;;5065504;28;20051;-55
2022/10/04 05:35:51;;;;;;;47.13;21.20;;;10.60;99.90;;;;;;5076233;28;20450;-55
2022/10/04 05:38:45;;;;;;;67.85;22.25;;;10.40;99.90;;;;;;5077187;28;20025;-55
2022/10/04 05:41:26;;;;;;;47.10;17.90;;;10.50;99.90;;;;;;5076600;28;20025;-55
2022/10/04 05:43:52;;;;;;;;;;;10.50;99.90;;;;;;5074600;28;20035;-55
2022/10/04 05:46:18;;;;;;;59.50;20.42;;;10.40;99.90;;;;;;5076069;28;19950;-55
2022/10/04 05:48:47;;;;;;;51.30;20.02;;;10.60;99.90;;;;;;5076760;28;20474;-55
2022/10/04 05:51:26;;;;;;;50.55;19.67;;;10.80;99.90;;;;;;5076841;28;20028;-55
2022/10/04 05:53:56;;;;;;;43.33;16.38;;;10.90;99.90;;;;;;5076618;28;20054;-55
2022/10/04 05:56:45;;;;;;;52.30;17.90;;;10.90;99.90;;;;;;5057589;28;20033;-55
2022/10/04 05:59:39;;;;;;;65.75;20.08;;;11.00;99.90;;;;;;5056869;28;20040;-55
2022/10/04 06:02:05;;;;;;;47.28;18.27;;;11.30;99.90;;;;;;5046110;28;20553;-55
2022/10/04 06:05:08;;;;;;;52.33;20.25;;;11.40;99.90;;;;;;5065080;28;20032;-55
2022/10/04 06:07:57;;;;;;;52.38;18.75;;;11.70;99.90;;;;;;4992498;28;20504;-55
2022/10/04 06:11:09;;;;;;;61.25;19.77;;;11.70;99.90;;;;;;5055248;28;20479;-55
2022/10/04 06:14:12;;;;;;;50.95;19.52;;;11.40;99.90;;;;;;5052866;28;20041;-55
2022/10/04 06:17:13;;;;;;;53.20;19.35;;;11.50;99.90;;;;;;5070863;28;20029;-55
2022/10/04 06:20:09;;;;;;;77.47;28.30;;;12.10;99.90;;;;;;5067206;28;20025;-55
2022/10/04 06:22:45;;;;;;;49.90;17.90;;;12.50;99.90;;;;;;5075914;28;20032;-55
2022/10/04 06:25:26;;;;;;;33.17;16.08;;;12.50;99.90;;;;;;5073850;28;20020;-55
2022/10/04 06:28:10;;;;;;;;;;;12.50;99.90;;;;;;5067540;28;20036;-55
2022/10/04 06:31:20;;;;;;;43.50;17.45;;;12.40;99.90;;;;;;5063793;28;19920;-55
2022/10/04 06:34:17;;;;;;;75.80;23.47;;;12.60;99.90;;;;;;5058448;28;20037;-55
2022/10/04 06:37:11;;;;;;;44.20;21.88;;;12.70;99.90;;;;;;5059064;28;20036;-55
2022/10/04 06:39:55;;;;;;;76.78;27.75;;;13.20;99.90;;;;;;5066751;28;20548;-55
2022/10/04 06:42:34;;;;;;;63.55;23.85;;;13.90;99.90;;;;;;5064461;28;20067;-55
2022/10/04 06:45:20;;;;;;;41.15;18.55;;;14.20;99.90;;;;;;5061196;28;20052;-55
2022/10/04 06:48:12;;;;;;;73.60;23.65;;;14.10;99.90;;;;;;5067977;28;20086;-55
2022/10/04 06:51:12;;;;;;;42.85;19.10;;;14.60;99.90;;;;;;5060966;28;20136;-55
2022/10/04 06:54:20;;;;;;;61.75;16.00;;;15.00;99.90;;;;;;5064516;28;20025;-55
2022/10/04 06:56:57;;;;;;;83.25;19.98;;;14.30;98.00;;;;;;5067366;28;20393;-55
2022/10/04 06:59:55;;;;;;;39.90;14.85;;;15.00;99.90;;;;;;5072620;28;20063;-55
2022/10/04 07:02:24;;;;;;;34.80;15.02;;;15.20;95.50;;;;;;5075041;28;20024;-55
2022/10/04 07:04:59;;;;;;;42.63;17.08;;;15.20;96.30;;;;;;5071813;28;20025;-55
2022/10/04 07:07:48;;;;;;;72.80;21.20;;;15.50;96.70;;;;;;5074379;28;20070;-55
2022/10/04 07:10:32;;;;;;;48.35;20.10;;;15.00;97.50;;;;;;5055504;28;20043;-55
2022/10/04 07:13:17;;;;;;;108.38;31.60;;;15.50;97.70;;;;;;5057166;28;20578;-55
2022/10/04 07:15:56;;;;;;;61.60;23.27;;;15.30;95.60;;;;;;5055206;28;20056;-55
2022/10/04 07:18:29;;;;;;;46.72;19.52;;;15.70;96.90;;;;;;5069243;28;20415;-55
2022/10/04 07:21:07;;;;;;;58.65;18.70;;;16.30;95.50;;;;;;5073729;28;20036;-55
2022/10/04 07:23:52;;;;;;;78.07;23.30;;;16.30;92.70;;;;;;5074915;28;20047;-55
2022/10/04 07:26:42;;;;;;;50.33;23.48;;;16.90;92.50;;;;;;5054854;28;20473;-55
2022/10/04 07:29:20;;;;;;;64.85;21.88;;;16.60;90.90;;;;;;5054595;28;20037;-55
2022/10/04 07:32:04;;;;;;;57.70;19.90;;;16.20;92.80;;;;;;5054976;28;20047;-55
2022/10/04 07:34:35;;;;;;;47.30;18.20;;;16.50;92.20;;;;;;5054701;28;20028;-55
2022/10/04 07:37:07;;;;;;;65.75;21.80;;;16.50;93.70;;;;;;5055101;28;20029;-55
2022/10/04 07:39:51;;;;;;;59.20;17.85;;;16.90;91.90;;;;;;5054585;28;20364;-55
2022/10/04 07:42:38;;;;;;;45.55;17.60;;;17.20;89.00;;;;;;5069852;28;20063;-55
2022/10/04 07:45:26;;;;;;;45.85;17.35;;;17.50;87.40;;;;;;5068639;28;20044;-55
2022/10/04 07:48:03;;;;;;;48.08;17.38;;;17.90;86.10;;;;;;5072652;28;20071;-55
2022/10/04 07:50:35;;;;;;;38.17;16.42;;;18.40;84.40;;;;;;5068731;28;20382;-55
2022/10/04 07:53:14;;;;;;;55.97;18.23;;;18.80;78.80;;;;;;5073817;28;20394;-55
2022/10/04 07:55:55;;;;;;;44.50;18.48;;;19.10;77.10;;;;;;5067759;28;20025;-56
2022/10/04 07:58:52;;;;;;;39.13;15.88;;;18.60;75.90;;;;;;5055698;28;20075;-55
2022/10/04 08:01:29;;;;;;;45.20;16.83;;;18.40;74.10;;;;;;5071902;28;20570;-55
2022/10/04 08:04:01;;;;;;;43.20;14.82;;;17.70;77.80;;;;;;5074141;28;20044;-55
2022/10/04 08:06:56;;;;;;;39.47;12.52;;;17.80;76.60;;;;;;5074214;28;20024;-55
2022/10/04 08:09:56;;;;;;;36.28;10.80;;;18.00;77.10;;;;;;5068562;28;20048;-56
2022/10/04 08:12:44;;;;;;;37.35;12.90;;;18.00;76.40;;;;;;5068387;28;20061;-56
2022/10/04 08:15:13;;;;;;;32.92;12.13;;;17.70;77.00;;;;;;5072711;28;20024;-56
2022/10/04 08:17:56;;;;;;;42.33;14.02;;;17.70;78.30;;;;;;5065349;28;20028;-56
2022/10/04 08:20:35;;;;;;;25.90;10.65;;;17.70;79.80;;;;;;5063917;28;20493;-56
2022/10/04 08:23:32;;;;;;;36.80;11.52;;;18.10;76.40;;;;;;5068287;28;20029;-56
2022/10/04 08:26:16;;;;;;;22.63;9.88;;;18.10;76.20;;;;;;5074413;28;20474;-56
2022/10/04 08:31:52;;;;;;;29.13;10.10;;;18.10;77.60;;;;;;5065274;28;20090;-55
2022/10/04 08:34:31;;;;;;;28.27;11.15;;;18.40;76.40;;;;;;5067243;28;20029;-56
2022/10/04 08:37:12;;;;;;;24.25;11.07;;;18.90;79.40;;;;;;5069360;28;20043;-56
2022/10/04 08:40:00;;;;;;;;;;;19.10;73.10;;;;;;5071550;28;20485;-56
2022/10/04 08:42:40;;;;;;;31.00;11.35;;;18.30;74.80;;;;;;5061097;28;19908;-56
2022/10/04 08:45:20;;;;;;;36.83;13.20;;;18.50;79.20;;;;;;5071385;28;20024;-55
2022/10/04 08:48:09;;;;;;;61.50;13.77;;;18.50;77.00;;;;;;5071658;28;20037;-56
2022/10/04 08:51:14;;;;;;;35.60;10.60;;;18.70;75.90;;;;;;5073015;28;20020;-56
2022/10/04 08:54:08;;;;;;;34.92;10.73;;;18.50;74.40;;;;;;5073207;28;20043;-55
2022/10/04 08:57:14;;;;;;;34.10;9.85;;;18.10;80.30;;;;;;5068545;28;20025;-56
2022/10/04 09:00:07;;;;;;;47.95;13.35;;;17.90;80.30;;;;;;5075158;28;20016;-56
2022/10/04 09:02:57;;;;;;;26.90;10.38;;;18.30;80.80;;;;;;5070179;28;20040;-55
2022/10/04 09:05:52;;;;;;;24.17;8.05;;;18.60;79.40;;;;;;5059797;28;20478;-55
2022/10/04 09:08:30;;;;;;;22.52;8.00;;;19.50;71.80;;;;;;5076385;28;20028;-56
2022/10/04 09:11:03;;;;;;;30.65;9.18;;;19.80;71.80;;;;;;5064736;28;20108;-56
2022/10/04 09:13:57;;;;;;;13.02;4.97;;;20.40;70.80;;;;;;5077914;28;20045;-56
2022/10/04 09:16:34;;;;;;;19.58;3.63;;;20.70;66.10;;;;;;5077051;28;20547;-56
2022/10/04 09:19:27;;;;;;;29.10;5.60;;;20.60;60.70;;;;;;5077013;28;20020;-56
2022/10/04 09:22:00;;;;;;;21.85;5.40;;;20.90;63.10;;;;;;5076596;28;20034;-56
2022/10/04 09:24:28;;;;;;;44.90;6.57;;;21.10;59.50;;;;;;5074888;28;20422;-56
2022/10/04 09:27:18;;;;;;;30.45;4.85;;;20.60;61.40;;;;;;5076516;28;20052;-56
2022/10/04 09:30:08;;;;;;;13.27;3.60;;;20.80;59.60;;;;;;5074674;28;20056;-56
2022/10/04 09:32:52;;;;;;;32.65;6.80;;;20.60;58.10;;;;;;5063195;28;20042;-55
2022/10/04 09:35:38;;;;;;;24.48;6.15;;;20.60;58.80;;;;;;5077927;28;20454;-55
2022/10/04 09:38:12;;;;;;;20.50;4.88;;;20.70;58.20;;;;;;5045176;28;20032;-55
2022/10/04 09:40:54;;;;;;;11.45;3.85;;;20.50;58.50;;;;;;5074800;28;20040;-55
2022/10/04 09:43:50;;;;;;;14.55;4.28;;;19.80;59.00;;;;;;5073289;28;20024;-55
2022/10/04 09:46:54;;;;;;;17.83;4.57;;;19.70;59.70;;;;;;5070751;28;20094;-55
2022/10/04 09:49:35;;;;;;;25.38;7.30;;;19.70;60.70;;;;;;5070409;28;20021;-55
2022/10/04 09:52:35;;;;;;;9.32;4.05;;;19.50;61.10;;;;;;5072734;28;20028;-55
2022/10/04 09:55:23;;;;;;;13.75;4.00;;;19.50;59.50;;;;;;5075689;28;20043;-55
2022/10/04 09:58:28;;;;;;;10.80;3.85;;;19.30;59.90;;;;;;5068684;28;20087;-56
2022/10/04 10:01:09;;;;;;;19.70;5.20;;;19.20;62.60;;;;;;5071774;28;20025;-55
2022/10/04 10:03:56;;;;;;;34.38;6.68;;;19.20;64.80;;;;;;5074886;28;20025;-55
2022/10/04 10:06:40;;;;;;;11.88;4.28;;;19.40;63.90;;;;;;5076013;28;20064;-55
2022/10/04 10:15:44;;;;;;;36.92;9.93;;;19.20;62.20;;;;;;5070423;28;20032;-55
2022/10/04 10:18:13;;;;;;;18.85;5.80;;;19.50;61.10;;;;;;5072834;28;20533;-55
2022/10/04 10:21:05;;;;;;;28.33;6.50;;;19.30;61.60;;;;;;5072973;28;20035;-55
2022/10/04 10:23:40;;;;;;;32.05;8.23;;;19.30;62.20;;;;;;5056791;28;20166;-55
2022/10/04 10:26:47;;;;;;;22.55;5.55;;;19.20;64.20;;;;;;5069618;28;20494;-55
2022/10/04 10:29:34;;;;;;;17.02;5.32;;;19.20;62.40;;;;;;5070380;28;20036;-56
2022/10/04 10:32:20;;;;;;;15.88;4.80;;;18.70;63.90;;;;;;5069718;28;20035;-55
2022/10/04 10:34:58;;;;;;;24.02;7.22;;;18.50;63.10;;;;;;5070068;28;20028;-55
2022/10/04 10:37:42;;;;;;;16.38;4.93;;;18.30;66.80;;;;;;5069881;28;20521;-55
2022/10/04 10:40:17;;;;;;;14.90;5.53;;;17.90;71.80;;;;;;5069096;28;20037;-55
2022/10/04 10:43:16;;;;;;;14.35;4.05;;;17.80;74.20;;;;;;5068189;28;20029;-55
2022/10/04 10:45:59;;;;;;;15.23;5.45;;;17.80;68.80;;;;;;5073247;28;20039;-55
2022/10/04 10:48:25;;;;;;;19.95;5.15;;;17.60;72.10;;;;;;5069175;28;20113;-55
2022/10/04 10:51:07;;;;;;;26.77;6.72;;;17.40;73.30;;;;;;5075871;28;20067;-55
2022/10/04 10:54:05;;;;;;;37.88;7.55;;;17.40;71.10;;;;;;5075354;28;20212;-55
2022/10/04 10:57:08;;;;;;;22.73;7.13;;;17.50;69.60;;;;;;5047370;28;20453;-55
2022/10/04 11:00:09;;;;;;;16.95;5.82;;;17.50;68.90;;;;;;5074975;28;20024;-55
2022/10/04 11:02:53;;;;;;;16.17;6.15;;;17.70;70.60;;;;;;5051284;28;20086;-55
2022/10/04 11:06:04;;;;;;;25.65;6.85;;;18.00;67.80;;;;;;5070781;28;20125;-55
2022/10/04 11:08:44;;;;;;;41.28;9.00;;;18.50;70.00;;;;;;5065238;28;20055;-55
2022/10/04 11:11:32;;;;;;;82.90;16.33;;;18.90;67.10;;;;;;5066106;28;20028;-55
2022/10/04 11:14:10;;;;;;;21.80;7.53;;;18.90;66.90;;;;;;5069603;28;20048;-55
2022/10/04 11:17:08;;;;;;;35.83;10.40;;;18.90;64.60;;;;;;5073708;28;20382;-55
2022/10/04 11:20:04;;;;;;;34.17;9.05;;;18.50;65.40;;;;;;5069553;28;20082;-55
2022/10/04 11:22:58;;;;;;;32.67;7.57;;;19.00;67.30;;;;;;5065670;28;20033;-55
2022/10/04 11:26:11;;;;;;;36.40;15.55;;;19.10;64.20;;;;;;5069865;28;20031;-55
2022/10/04 11:28:52;;;;;;;23.15;7.68;;;19.00;63.00;;;;;;5060002;28;20335;-55
2022/10/04 11:31:55;;;;;;;19.30;6.65;;;18.90;65.20;;;;;;5074731;28;20056;-55
2022/10/04 11:34:58;;;;;;;20.60;6.63;;;19.00;67.80;;;;;;5071859;28;20043;-55
2022/10/04 11:37:30;;;;;;;19.50;7.30;;;19.10;68.50;;;;;;5070024;28;20023;-55
2022/10/04 11:40:23;;;;;;;52.10;13.32;;;19.10;69.90;;;;;;5073526;28;20029;-55
2022/10/04 11:43:35;;;;;;;96.88;18.15;;;19.20;66.30;;;;;;5065212;28;20025;-55
2022/10/04 11:46:01;;;;;;;63.85;13.68;;;19.40;62.00;;;;;;5062466;28;20029;-55
2022/10/04 11:49:02;;;;;;;22.92;6.10;;;19.40;62.50;;;;;;5070327;28;20025;-55
2022/10/04 11:52:04;;;;;;;53.55;11.05;;;19.50;60.50;;;;;;5069489;28;20032;-55
2022/10/04 11:54:56;;;;;;;34.13;8.18;;;19.50;63.10;;;;;;5054037;28;20017;-55
2022/10/04 11:57:50;;;;;;;18.73;7.38;;;19.70;63.90;;;;;;5062926;28;20060;-55
2022/10/04 12:00:19;;;;;;;14.13;5.05;;;19.90;62.50;;;;;;5067200;28;20028;-55
2022/10/04 12:03:13;;;;;;;16.25;5.25;;;20.40;58.20;;;;;;5065987;28;20025;-55
2022/10/04 12:06:08;;;;;;;14.20;5.72;;;20.60;59.20;;;;;;5074067;28;20119;-55
2022/10/04 12:09:03;;;;;;;9.30;4.70;;;20.70;59.70;;;;;;5069478;28;20020;-55
2022/10/04 12:14:42;;;;;;;19.83;7.82;;;21.10;59.00;;;;;;5073046;28;20043;-55
2022/10/04 12:17:30;;;;;;;21.02;5.40;;;21.20;58.00;;;;;;5053862;28;20033;-55
2022/10/04 12:20:28;;;;;;;15.57;5.25;;;21.30;54.70;;;;;;5064782;28;20457;-55
2022/10/04 12:23:03;;;;;;;16.73;5.32;;;21.20;57.80;;;;;;5072300;28;20036;-55
2022/10/04 12:25:52;;;;;;;11.20;3.60;;;21.40;54.40;;;;;;5075582;28;20055;-55
2022/10/04 12:28:38;;;;;;;22.40;4.80;;;21.60;54.00;;;;;;5073902;28;20040;-55
2022/10/04 12:31:07;;;;;;;14.00;4.47;;;21.70;54.90;;;;;;5062784;28;20094;-55
2022/10/04 12:34:05;;;;;;;25.67;6.15;;;21.30;55.70;;;;;;5074236;28;20162;-55
2022/10/04 12:36:58;;;;;;;10.18;3.72;;;21.50;53.00;;;;;;5069002;28;20075;-55
2022/10/04 12:39:48;;;;;;;11.63;3.78;;;22.10;51.30;;;;;;5065587;28;20112;-55
2022/10/04 12:42:17;;;;;;;8.63;3.13;;;22.40;54.60;;;;;;5073197;28;20033;-55
2022/10/04 12:44:49;;;;;;;8.75;2.65;;;22.50;51.90;;;;;;5073757;28;20032;-55
2022/10/04 12:47:36;;;;;;;9.32;2.33;;;22.20;50.60;;;;;;5072552;28;20036;-55
2022/10/04 12:50:08;;;;;;;4.28;2.30;;;22.00;47.90;;;;;;5072976;28;20116;-55
2022/10/04 12:53:01;;;;;;;7.40;2.58;;;21.50;49.30;;;;;;5073360;28;20040;-55
2022/10/04 12:56:02;;;;;;;21.88;4.53;;;21.70;49.40;;;;;;5062719;28;20119;-55
2022/10/04 12:58:46;;;;;;;10.68;3.47;;;21.80;50.10;;;;;;5072029;28;20488;-55
2022/10/04 13:01:38;;;;;;;31.55;6.88;;;21.80;49.60;;;;;;5072148;28;20408;-55
2022/10/04 13:04:09;;;;;;;13.00;3.85;;;21.80;51.40;;;;;;5055492;28;20068;-55
2022/10/04 13:07:25;;;;;;;27.10;10.90;;;21.90;50.40;;;;;;5053436;28;20078;-55
2022/10/04 13:10:18;;;;;;;8.85;3.40;;;21.60;51.00;;;;;;5040429;28;20063;-55
2022/10/04 13:13:00;;;;;;;7.78;2.67;;;21.20;49.70;;;;;;5034930;28;20140;-55
2022/10/04 13:16:05;;;;;;;19.00;4.43;;;20.70;50.20;;;;;;5048216;28;20443;-55
2022/10/04 13:18:44;;;;;;;11.45;3.20;;;21.10;54.40;;;;;;5046082;28;20048;-55
2022/10/04 13:22:00;;;;;;;13.25;3.50;;;20.90;51.40;;;;;;5051303;28;20032;-55
2022/10/04 13:24:56;;;;;;;10.88;2.95;;;21.00;52.30;;;;;;5030541;28;20137;-55
2022/10/04 13:27:37;;;;;;;8.82;3.40;;;21.10;52.90;;;;;;5055019;28;20056;-55
2022/10/04 13:30:14;;;;;;;16.00;6.50;;;21.20;52.80;;;;;;5054961;28;20040;-55
2022/10/04 13:32:41;;;;;;;8.90;2.95;;;21.30;53.60;;;;;;5055097;28;20029;-55
2022/10/04 13:35:25;;;;;;;12.98;3.80;;;21.10;52.00;;;;;;5054896;28;20083;-55
2022/10/04 13:38:23;;;;;;;11.35;3.90;;;20.90;53.60;;;;;;5054893;28;20044;-55
2022/10/04 13:40:55;;;;;;;17.55;4.68;;;20.80;51.90;;;;;;5054700;28;20673;-55
2022/10/04 13:43:45;;;;;;;12.88;3.88;;;20.70;53.70;;;;;;5063513;28;20375;-55
2022/10/04 13:46:38;;;;;;;11.95;3.95;;;20.70;55.50;;;;;;5077228;28;20031;-55
2022/10/04 13:49:28;;;;;;;16.80;5.35;;;21.10;53.40;;;;;;5076766;28;20083;-55
2022/10/04 13:58:22;;;;;;;17.77;3.17;;;21.60;50.90;;;;;;5076765;28;20021;-55
2022/10/04 14:01:31;;;;;;;7.38;3.65;;;21.60;52.80;;;;;;5076931;28;20035;-55
2022/10/04 14:04:35;;;;;;;10.65;3.30;;;21.50;53.90;;;;;;5076759;28;20037;-55
2022/10/04 14:07:38;;;;;;;7.97;3.45;;;21.30;51.60;;;;;;5076678;28;20024;-55
2022/10/04 14:10:10;;;;;;;7.30;2.85;;;21.00;51.80;;;;;;5076555;28;20071;-55
2022/10/04 14:12:48;;;;;;;12.13;4.55;;;20.70;55.30;;;;;;5076556;28;20123;-55